sensor_id;sensor_type;location;lat;lon;timestamp;P1;durP1;ratioP1;P2;durP2;ratioP2
61471;SDS011;47337;54.068;12.114;2024-03-23T00:53:48;26.45;;;5.95;;
61471;SDS011;47337;54.068;12.114;2024-03-23T00:56:13;25.27;;;4.95;;
61471;SDS011;47337;54.068;12.114;2024-03-23T00:58:38;22.35;;;4.95;;
61471;SDS011;47337;54.068;12.114;2024-03-23T01:01:04;19.08;;;4.95;;
61471;SDS011;47337;54.068;12.114;2024-03-23T01:03:29;28.77;;;6.45;;
61471;SDS011;47337;54.068;12.114;2024-03-23T01:05:58;37.85;;;5.45;;
61471;SDS011;47337;54.068;12.114;2024-03-23T01:08:24;25.67;;;4.93;;
61471;SDS011;47337;54.068;12.114;2024-03-23T01:10:58;20.08;;;5.18;;
61471;SDS011;47337;54.068;12.114;2024-03-23T01:13:27;22.95;;;5.00;;
61471;SDS011;47337;54.068;12.114;2024-03-23T01:15:52;26.05;;;5.20;;
61471;SDS011;47337;54.068;12.114;2024-03-23T01:18:18;20.10;;;5.13;;
61471;SDS011;47337;54.068;12.114;2024-03-23T01:20:43;20.63;;;5.15;;
61471;SDS011;47337;54.068;12.114;2024-03-23T01:23:09;21.95;;;5.00;;
61471;SDS011;47337;54.068;12.114;2024-03-23T01:25:34;20.23;;;4.38;;
61471;SDS011;47337;54.068;12.114;2024-03-23T01:27:59;21.83;;;4.43;;
61471;SDS011;47337;54.068;12.114;2024-03-23T01:30:24;20.92;;;5.45;;
61471;SDS011;47337;54.068;12.114;2024-03-23T01:32:50;28.40;;;5.93;;
61471;SDS011;47337;54.068;12.114;2024-03-23T01:35:15;27.13;;;4.80;;
61471;SDS011;47337;54.068;12.114;2024-03-23T01:37:40;19.38;;;5.05;;
61471;SDS011;47337;54.068;12.114;2024-03-23T01:40:05;18.63;;;4.63;;
61471;SDS011;47337;54.068;12.114;2024-03-23T01:42:31;25.55;;;4.57;;
61471;SDS011;47337;54.068;12.114;2024-03-23T01:44:56;20.40;;;5.10;;
61471;SDS011;47337;54.068;12.114;2024-03-23T01:47:23;17.23;;;4.40;;
61471;SDS011;47337;54.068;12.114;2024-03-23T01:49:49;17.80;;;3.92;;
61471;SDS011;47337;54.068;12.114;2024-03-23T01:52:14;17.95;;;4.75;;
61471;SDS011;47337;54.068;12.114;2024-03-23T01:54:40;22.30;;;4.03;;
61471;SDS011;47337;54.068;12.114;2024-03-23T01:57:05;16.80;;;4.55;;
61471;SDS011;47337;54.068;12.114;2024-03-23T01:59:31;24.58;;;4.38;;
61471;SDS011;47337;54.068;12.114;2024-03-23T02:01:59;21.13;;;4.20;;
61471;SDS011;47337;54.068;12.114;2024-03-23T02:04:26;24.00;;;5.22;;
61471;SDS011;47337;54.068;12.114;2024-03-23T02:06:52;22.27;;;3.88;;
61471;SDS011;47337;54.068;12.114;2024-03-23T02:09:17;32.78;;;6.82;;
61471;SDS011;47337;54.068;12.114;2024-03-23T02:11:45;21.17;;;4.10;;
61471;SDS011;47337;54.068;12.114;2024-03-23T02:14:10;21.88;;;4.32;;
61471;SDS011;47337;54.068;12.114;2024-03-23T02:16:35;27.95;;;4.10;;
61471;SDS011;47337;54.068;12.114;2024-03-23T02:19:03;23.13;;;4.38;;
61471;SDS011;47337;54.068;12.114;2024-03-23T02:21:30;24.92;;;4.47;;
61471;SDS011;47337;54.068;12.114;2024-03-23T02:23:57;29.33;;;3.83;;
61471;SDS011;47337;54.068;12.114;2024-03-23T02:26:22;23.98;;;4.25;;
61471;SDS011;47337;54.068;12.114;2024-03-23T02:28:47;20.60;;;4.10;;
61471;SDS011;47337;54.068;12.114;2024-03-23T02:31:14;19.45;;;3.88;;
61471;SDS011;47337;54.068;12.114;2024-03-23T02:33:40;21.17;;;3.80;;
61471;SDS011;47337;54.068;12.114;2024-03-23T02:36:06;21.27;;;4.60;;
61471;SDS011;47337;54.068;12.114;2024-03-23T02:38:33;24.58;;;4.97;;
61471;SDS011;47337;54.068;12.114;2024-03-23T02:41:05;18.63;;;3.55;;
61471;SDS011;47337;54.068;12.114;2024-03-23T02:43:30;23.65;;;4.22;;
61471;SDS011;47337;54.068;12.114;2024-03-23T02:45:57;21.20;;;3.60;;
61471;SDS011;47337;54.068;12.114;2024-03-23T02:48:22;28.02;;;5.07;;
61471;SDS011;47337;54.068;12.114;2024-03-23T02:50:50;22.48;;;4.30;;
61471;SDS011;47337;54.068;12.114;2024-03-23T02:53:16;19.65;;;4.43;;
61471;SDS011;47337;54.068;12.114;2024-03-23T02:55:41;29.13;;;3.95;;
61471;SDS011;47337;54.068;12.114;2024-03-23T02:58:08;28.85;;;3.97;;
61471;SDS011;47337;54.068;12.114;2024-03-23T03:00:34;25.52;;;4.97;;
61471;SDS011;47337;54.068;12.114;2024-03-23T03:02:59;23.25;;;4.50;;
61471;SDS011;47337;54.068;12.114;2024-03-23T03:05:24;27.50;;;5.45;;
61471;SDS011;47337;54.068;12.114;2024-03-23T03:07:51;23.80;;;4.85;;
61471;SDS011;47337;54.068;12.114;2024-03-23T03:10:16;24.65;;;3.92;;
61471;SDS011;47337;54.068;12.114;2024-03-23T03:12:41;29.70;;;4.75;;
61471;SDS011;47337;54.068;12.114;2024-03-23T03:15:07;16.92;;;3.53;;
61471;SDS011;47337;54.068;12.114;2024-03-23T03:17:34;19.75;;;4.00;;
61471;SDS011;47337;54.068;12.114;2024-03-23T03:19:59;32.10;;;5.65;;
61471;SDS011;47337;54.068;12.114;2024-03-23T03:22:24;26.15;;;3.90;;
61471;SDS011;47337;54.068;12.114;2024-03-23T03:24:52;17.23;;;4.28;;
61471;SDS011;47337;54.068;12.114;2024-03-23T03:27:17;23.10;;;4.00;;
61471;SDS011;47337;54.068;12.114;2024-03-23T03:29:42;32.80;;;5.22;;
61471;SDS011;47337;54.068;12.114;2024-03-23T03:32:08;28.30;;;4.97;;
61471;SDS011;47337;54.068;12.114;2024-03-23T03:34:33;28.52;;;3.70;;
61471;SDS011;47337;54.068;12.114;2024-03-23T03:37:01;28.50;;;4.65;;
61471;SDS011;47337;54.068;12.114;2024-03-23T03:39:26;24.40;;;3.97;;
61471;SDS011;47337;54.068;12.114;2024-03-23T03:41:51;23.13;;;4.45;;
61471;SDS011;47337;54.068;12.114;2024-03-23T03:44:19;19.20;;;3.95;;
61471;SDS011;47337;54.068;12.114;2024-03-23T03:46:47;21.52;;;5.10;;
61471;SDS011;47337;54.068;12.114;2024-03-23T03:49:12;27.55;;;4.00;;
61471;SDS011;47337;54.068;12.114;2024-03-23T03:51:40;19.80;;;4.05;;
61471;SDS011;47337;54.068;12.114;2024-03-23T03:54:08;23.63;;;4.20;;
61471;SDS011;47337;54.068;12.114;2024-03-23T03:56:33;29.42;;;5.13;;
61471;SDS011;47337;54.068;12.114;2024-03-23T03:58:58;23.95;;;4.40;;
61471;SDS011;47337;54.068;12.114;2024-03-23T04:01:23;16.40;;;3.70;;
61471;SDS011;47337;54.068;12.114;2024-03-23T04:03:49;16.52;;;3.67;;
61471;SDS011;47337;54.068;12.114;2024-03-23T04:06:20;26.05;;;4.05;;
61471;SDS011;47337;54.068;12.114;2024-03-23T04:08:45;21.45;;;4.05;;
61471;SDS011;47337;54.068;12.114;2024-03-23T04:11:11;24.20;;;3.92;;
61471;SDS011;47337;54.068;12.114;2024-03-23T04:13:36;26.48;;;5.15;;
61471;SDS011;47337;54.068;12.114;2024-03-23T04:16:01;27.40;;;5.30;;
61471;SDS011;47337;54.068;12.114;2024-03-23T04:18:26;17.08;;;3.40;;
61471;SDS011;47337;54.068;12.114;2024-03-23T04:20:52;23.42;;;4.10;;
61471;SDS011;47337;54.068;12.114;2024-03-23T04:23:17;19.20;;;4.03;;
61471;SDS011;47337;54.068;12.114;2024-03-23T04:25:42;23.42;;;4.40;;
61471;SDS011;47337;54.068;12.114;2024-03-23T04:28:08;27.88;;;4.60;;
61471;SDS011;47337;54.068;12.114;2024-03-23T04:30:33;20.48;;;3.13;;
61471;SDS011;47337;54.068;12.114;2024-03-23T04:32:59;22.50;;;4.38;;
61471;SDS011;47337;54.068;12.114;2024-03-23T04:35:26;25.98;;;3.88;;
61471;SDS011;47337;54.068;12.114;2024-03-23T04:37:51;21.63;;;3.70;;
61471;SDS011;47337;54.068;12.114;2024-03-23T04:40:26;19.80;;;3.55;;
61471;SDS011;47337;54.068;12.114;2024-03-23T04:42:51;19.83;;;3.25;;
61471;SDS011;47337;54.068;12.114;2024-03-23T04:45:16;20.95;;;2.92;;
61471;SDS011;47337;54.068;12.114;2024-03-23T04:47:42;17.23;;;3.60;;
61471;SDS011;47337;54.068;12.114;2024-03-23T04:50:09;17.17;;;3.03;;
61471;SDS011;47337;54.068;12.114;2024-03-23T04:52:37;17.27;;;3.75;;
61471;SDS011;47337;54.068;12.114;2024-03-23T04:55:03;21.80;;;4.15;;
61471;SDS011;47337;54.068;12.114;2024-03-23T04:57:28;20.80;;;3.40;;
61471;SDS011;47337;54.068;12.114;2024-03-23T04:59:54;16.20;;;3.10;;
61471;SDS011;47337;54.068;12.114;2024-03-23T05:02:22;26.33;;;5.20;;
61471;SDS011;47337;54.068;12.114;2024-03-23T05:04:50;17.80;;;3.30;;
61471;SDS011;47337;54.068;12.114;2024-03-23T05:07:15;26.40;;;3.95;;
61471;SDS011;47337;54.068;12.114;2024-03-23T05:09:40;20.88;;;5.38;;
61471;SDS011;47337;54.068;12.114;2024-03-23T05:12:05;22.17;;;4.20;;
61471;SDS011;47337;54.068;12.114;2024-03-23T05:14:31;19.55;;;4.07;;
61471;SDS011;47337;54.068;12.114;2024-03-23T05:16:56;11.52;;;2.92;;
61471;SDS011;47337;54.068;12.114;2024-03-23T05:19:21;25.27;;;3.80;;
61471;SDS011;47337;54.068;12.114;2024-03-23T05:21:47;19.70;;;3.50;;
61471;SDS011;47337;54.068;12.114;2024-03-23T05:24:12;20.65;;;4.15;;
61471;SDS011;47337;54.068;12.114;2024-03-23T05:26:38;17.77;;;3.08;;
61471;SDS011;47337;54.068;12.114;2024-03-23T05:29:06;20.63;;;3.92;;
61471;SDS011;47337;54.068;12.114;2024-03-23T05:31:35;28.08;;;4.20;;
61471;SDS011;47337;54.068;12.114;2024-03-23T05:34:01;19.90;;;3.65;;
61471;SDS011;47337;54.068;12.114;2024-03-23T05:36:26;16.70;;;3.80;;
61471;SDS011;47337;54.068;12.114;2024-03-23T05:38:51;17.20;;;3.25;;
61471;SDS011;47337;54.068;12.114;2024-03-23T05:41:16;24.20;;;3.63;;
61471;SDS011;47337;54.068;12.114;2024-03-23T05:43:44;14.70;;;2.88;;
61471;SDS011;47337;54.068;12.114;2024-03-23T05:46:09;17.63;;;3.50;;
61471;SDS011;47337;54.068;12.114;2024-03-23T05:48:34;22.25;;;3.72;;
61471;SDS011;47337;54.068;12.114;2024-03-23T05:51:00;27.73;;;4.25;;
61471;SDS011;47337;54.068;12.114;2024-03-23T05:53:25;19.65;;;4.25;;
61471;SDS011;47337;54.068;12.114;2024-03-23T05:55:51;21.63;;;4.25;;
61471;SDS011;47337;54.068;12.114;2024-03-23T05:58:18;15.52;;;3.60;;
61471;SDS011;47337;54.068;12.114;2024-03-23T06:00:45;24.58;;;4.43;;
61471;SDS011;47337;54.068;12.114;2024-03-23T06:03:10;21.40;;;3.45;;
61471;SDS011;47337;54.068;12.114;2024-03-23T06:05:40;21.33;;;3.47;;
61471;SDS011;47337;54.068;12.114;2024-03-23T06:08:07;25.63;;;5.07;;
61471;SDS011;47337;54.068;12.114;2024-03-23T06:10:34;27.60;;;4.88;;
61471;SDS011;47337;54.068;12.114;2024-03-23T06:13:02;18.98;;;3.60;;
61471;SDS011;47337;54.068;12.114;2024-03-23T06:15:27;13.05;;;3.85;;
61471;SDS011;47337;54.068;12.114;2024-03-23T06:17:55;27.65;;;4.72;;
61471;SDS011;47337;54.068;12.114;2024-03-23T06:20:20;18.15;;;3.75;;
61471;SDS011;47337;54.068;12.114;2024-03-23T06:22:46;16.60;;;3.20;;
61471;SDS011;47337;54.068;12.114;2024-03-23T06:25:11;20.40;;;3.95;;
61471;SDS011;47337;54.068;12.114;2024-03-23T06:27:37;20.77;;;3.33;;
61471;SDS011;47337;54.068;12.114;2024-03-23T06:30:04;24.80;;;5.20;;
61471;SDS011;47337;54.068;12.114;2024-03-23T06:32:29;23.98;;;3.88;;
61471;SDS011;47337;54.068;12.114;2024-03-23T06:34:54;30.63;;;5.60;;
61471;SDS011;47337;54.068;12.114;2024-03-23T06:37:20;24.48;;;4.35;;
61471;SDS011;47337;54.068;12.114;2024-03-23T06:39:48;24.85;;;3.65;;
61471;SDS011;47337;54.068;12.114;2024-03-23T06:42:13;18.15;;;5.13;;
61471;SDS011;47337;54.068;12.114;2024-03-23T06:44:40;23.42;;;3.53;;
61471;SDS011;47337;54.068;12.114;2024-03-23T06:47:06;20.05;;;3.58;;
61471;SDS011;47337;54.068;12.114;2024-03-23T06:49:31;18.60;;;3.78;;
61471;SDS011;47337;54.068;12.114;2024-03-23T06:51:59;18.42;;;3.45;;
61471;SDS011;47337;54.068;12.114;2024-03-23T06:54:24;22.70;;;4.40;;
61471;SDS011;47337;54.068;12.114;2024-03-23T06:56:49;18.65;;;4.35;;
61471;SDS011;47337;54.068;12.114;2024-03-23T06:59:15;26.55;;;4.63;;
61471;SDS011;47337;54.068;12.114;2024-03-23T07:01:40;19.42;;;3.55;;
61471;SDS011;47337;54.068;12.114;2024-03-23T07:04:05;17.83;;;4.13;;
61471;SDS011;47337;54.068;12.114;2024-03-23T07:06:31;14.75;;;3.75;;
61471;SDS011;47337;54.068;12.114;2024-03-23T07:08:56;23.95;;;4.25;;
61471;SDS011;47337;54.068;12.114;2024-03-23T07:11:22;24.60;;;4.78;;
61471;SDS011;47337;54.068;12.114;2024-03-23T07:13:51;14.68;;;3.63;;
61471;SDS011;47337;54.068;12.114;2024-03-23T07:16:16;22.85;;;3.95;;
61471;SDS011;47337;54.068;12.114;2024-03-23T07:18:42;20.48;;;3.55;;
61471;SDS011;47337;54.068;12.114;2024-03-23T07:21:07;17.20;;;4.10;;
61471;SDS011;47337;54.068;12.114;2024-03-23T07:23:32;16.42;;;3.22;;
61471;SDS011;47337;54.068;12.114;2024-03-23T07:26:04;19.55;;;4.07;;
61471;SDS011;47337;54.068;12.114;2024-03-23T07:28:30;21.88;;;4.55;;
61471;SDS011;47337;54.068;12.114;2024-03-23T07:31:04;28.27;;;4.68;;
61471;SDS011;47337;54.068;12.114;2024-03-23T07:33:29;12.30;;;3.67;;
61471;SDS011;47337;54.068;12.114;2024-03-23T07:35:55;14.57;;;3.72;;
61471;SDS011;47337;54.068;12.114;2024-03-23T07:38:20;18.75;;;4.95;;
61471;SDS011;47337;54.068;12.114;2024-03-23T07:40:45;15.85;;;3.45;;
61471;SDS011;47337;54.068;12.114;2024-03-23T07:43:11;15.15;;;4.35;;
61471;SDS011;47337;54.068;12.114;2024-03-23T07:45:36;17.98;;;3.67;;
61471;SDS011;47337;54.068;12.114;2024-03-23T07:48:03;22.60;;;3.85;;
61471;SDS011;47337;54.068;12.114;2024-03-23T07:50:28;14.48;;;4.53;;
61471;SDS011;47337;54.068;12.114;2024-03-23T07:52:53;17.73;;;3.55;;
61471;SDS011;47337;54.068;12.114;2024-03-23T07:55:19;14.88;;;3.58;;
61471;SDS011;47337;54.068;12.114;2024-03-23T07:57:44;17.42;;;3.95;;
61471;SDS011;47337;54.068;12.114;2024-03-23T08:00:09;17.05;;;3.83;;
61471;SDS011;47337;54.068;12.114;2024-03-23T08:02:34;18.30;;;3.75;;
61471;SDS011;47337;54.068;12.114;2024-03-23T08:05:00;20.50;;;3.67;;
61471;SDS011;47337;54.068;12.114;2024-03-23T08:07:25;17.30;;;3.92;;
61471;SDS011;47337;54.068;12.114;2024-03-23T08:09:50;17.60;;;4.07;;
61471;SDS011;47337;54.068;12.114;2024-03-23T08:12:16;20.25;;;4.88;;
61471;SDS011;47337;54.068;12.114;2024-03-23T08:14:41;22.05;;;3.88;;
61471;SDS011;47337;54.068;12.114;2024-03-23T08:17:09;20.42;;;4.28;;
61471;SDS011;47337;54.068;12.114;2024-03-23T08:19:34;17.65;;;4.03;;
61471;SDS011;47337;54.068;12.114;2024-03-23T08:21:59;15.07;;;3.20;;
61471;SDS011;47337;54.068;12.114;2024-03-23T08:24:27;12.88;;;3.60;;
61471;SDS011;47337;54.068;12.114;2024-03-23T08:26:54;18.10;;;3.65;;
61471;SDS011;47337;54.068;12.114;2024-03-23T08:29:19;15.40;;;3.25;;
61471;SDS011;47337;54.068;12.114;2024-03-23T08:31:44;19.52;;;4.43;;
61471;SDS011;47337;54.068;12.114;2024-03-23T08:34:12;15.45;;;2.83;;
61471;SDS011;47337;54.068;12.114;2024-03-23T08:36:37;13.93;;;3.42;;
61471;SDS011;47337;54.068;12.114;2024-03-23T08:39:02;13.77;;;3.50;;
61471;SDS011;47337;54.068;12.114;2024-03-23T08:41:30;20.92;;;3.40;;
61471;SDS011;47337;54.068;12.114;2024-03-23T08:43:55;10.82;;;3.40;;
61471;SDS011;47337;54.068;12.114;2024-03-23T08:46:21;13.45;;;3.25;;
61471;SDS011;47337;54.068;12.114;2024-03-23T08:48:46;16.15;;;3.67;;
61471;SDS011;47337;54.068;12.114;2024-03-23T08:51:14;14.43;;;3.67;;
61471;SDS011;47337;54.068;12.114;2024-03-23T08:53:39;13.77;;;3.22;;
61471;SDS011;47337;54.068;12.114;2024-03-23T08:56:07;15.18;;;3.35;;
61471;SDS011;47337;54.068;12.114;2024-03-23T08:58:33;15.73;;;3.38;;
61471;SDS011;47337;54.068;12.114;2024-03-23T09:01:06;12.18;;;2.72;;
61471;SDS011;47337;54.068;12.114;2024-03-23T09:03:31;12.05;;;2.85;;
61471;SDS011;47337;54.068;12.114;2024-03-23T09:05:59;15.95;;;3.38;;
61471;SDS011;47337;54.068;12.114;2024-03-23T09:08:25;15.80;;;3.15;;
61471;SDS011;47337;54.068;12.114;2024-03-23T09:10:51;17.30;;;3.20;;
61471;SDS011;47337;54.068;12.114;2024-03-23T09:13:16;17.00;;;3.25;;
61471;SDS011;47337;54.068;12.114;2024-03-23T09:15:51;17.50;;;3.58;;
61471;SDS011;47337;54.068;12.114;2024-03-23T09:18:19;13.40;;;3.47;;
61471;SDS011;47337;54.068;12.114;2024-03-23T09:20:44;12.45;;;2.67;;
61471;SDS011;47337;54.068;12.114;2024-03-23T09:23:09;15.57;;;3.08;;
61471;SDS011;47337;54.068;12.114;2024-03-23T09:25:38;15.63;;;3.42;;
61471;SDS011;47337;54.068;12.114;2024-03-23T09:28:04;7.75;;;2.35;;
61471;SDS011;47337;54.068;12.114;2024-03-23T09:30:30;12.52;;;2.67;;
61471;SDS011;47337;54.068;12.114;2024-03-23T09:32:55;11.93;;;2.90;;
61471;SDS011;47337;54.068;12.114;2024-03-23T09:35:20;18.65;;;3.55;;
61471;SDS011;47337;54.068;12.114;2024-03-23T09:37:45;13.50;;;3.45;;
61471;SDS011;47337;54.068;12.114;2024-03-23T09:40:11;11.40;;;2.78;;
61471;SDS011;47337;54.068;12.114;2024-03-23T09:42:38;14.25;;;3.03;;
61471;SDS011;47337;54.068;12.114;2024-03-23T09:45:05;12.48;;;2.88;;
61471;SDS011;47337;54.068;12.114;2024-03-23T09:47:32;14.68;;;3.20;;
61471;SDS011;47337;54.068;12.114;2024-03-23T09:49:57;10.13;;;2.13;;
61471;SDS011;47337;54.068;12.114;2024-03-23T09:52:24;12.73;;;2.78;;
61471;SDS011;47337;54.068;12.114;2024-03-23T09:54:50;10.48;;;2.35;;
61471;SDS011;47337;54.068;12.114;2024-03-23T09:57:15;20.38;;;3.22;;
61471;SDS011;47337;54.068;12.114;2024-03-23T09:59:40;13.10;;;3.70;;
61471;SDS011;47337;54.068;12.114;2024-03-23T10:02:06;7.75;;;2.30;;
61471;SDS011;47337;54.068;12.114;2024-03-23T10:04:38;17.63;;;2.85;;
61471;SDS011;47337;54.068;12.114;2024-03-23T10:07:13;8.88;;;2.35;;
61471;SDS011;47337;54.068;12.114;2024-03-23T10:09:39;11.73;;;2.55;;
61471;SDS011;47337;54.068;12.114;2024-03-23T10:12:08;11.93;;;2.10;;
61471;SDS011;47337;54.068;12.114;2024-03-23T10:14:34;9.98;;;2.40;;
61471;SDS011;47337;54.068;12.114;2024-03-23T10:17:11;8.88;;;2.78;;
61471;SDS011;47337;54.068;12.114;2024-03-23T10:19:38;9.98;;;2.33;;
61471;SDS011;47337;54.068;12.114;2024-03-23T10:22:06;9.10;;;2.22;;
61471;SDS011;47337;54.068;12.114;2024-03-23T10:24:31;10.50;;;2.63;;
61471;SDS011;47337;54.068;12.114;2024-03-23T10:26:57;12.35;;;2.08;;
61471;SDS011;47337;54.068;12.114;2024-03-23T10:29:25;10.10;;;2.22;;
61471;SDS011;47337;54.068;12.114;2024-03-23T10:31:52;8.43;;;2.13;;
61471;SDS011;47337;54.068;12.114;2024-03-23T10:34:24;9.00;;;2.30;;
61471;SDS011;47337;54.068;12.114;2024-03-23T10:36:53;10.35;;;2.30;;
61471;SDS011;47337;54.068;12.114;2024-03-23T10:39:20;7.95;;;1.85;;
61471;SDS011;47337;54.068;12.114;2024-03-23T10:41:46;9.98;;;2.30;;
61471;SDS011;47337;54.068;12.114;2024-03-23T10:44:14;7.15;;;1.38;;
61471;SDS011;47337;54.068;12.114;2024-03-23T10:46:41;6.07;;;1.60;;
61471;SDS011;47337;54.068;12.114;2024-03-23T10:49:09;6.43;;;1.63;;
61471;SDS011;47337;54.068;12.114;2024-03-23T10:51:34;8.65;;;2.00;;
61471;SDS011;47337;54.068;12.114;2024-03-23T10:53:59;6.60;;;1.50;;
61471;SDS011;47337;54.068;12.114;2024-03-23T10:56:28;9.75;;;1.75;;
61471;SDS011;47337;54.068;12.114;2024-03-23T10:58:58;6.57;;;2.20;;
61471;SDS011;47337;54.068;12.114;2024-03-23T11:01:24;6.95;;;1.83;;
61471;SDS011;47337;54.068;12.114;2024-03-23T11:03:49;12.23;;;2.67;;
61471;SDS011;47337;54.068;12.114;2024-03-23T11:06:37;15.52;;;2.50;;
61471;SDS011;47337;54.068;12.114;2024-03-23T11:09:02;10.23;;;2.45;;
61471;SDS011;47337;54.068;12.114;2024-03-23T11:11:27;7.88;;;1.95;;
61471;SDS011;47337;54.068;12.114;2024-03-23T11:13:56;8.85;;;1.83;;
61471;SDS011;47337;54.068;12.114;2024-03-23T11:16:22;9.35;;;2.08;;
61471;SDS011;47337;54.068;12.114;2024-03-23T11:18:48;8.82;;;3.05;;
61471;SDS011;47337;54.068;12.114;2024-03-23T11:24:13;10.95;;;2.10;;
61471;SDS011;47337;54.068;12.114;2024-03-23T11:26:39;11.20;;;2.22;;
61471;SDS011;47337;54.068;12.114;2024-03-23T11:29:10;7.90;;;2.05;;
61471;SDS011;47337;54.068;12.114;2024-03-23T11:31:36;7.30;;;1.98;;
61471;SDS011;47337;54.068;12.114;2024-03-23T11:34:05;7.75;;;1.95;;
61471;SDS011;47337;54.068;12.114;2024-03-23T11:36:31;7.15;;;1.52;;
61471;SDS011;47337;54.068;12.114;2024-03-23T11:38:58;8.88;;;1.70;;
61471;SDS011;47337;54.068;12.114;2024-03-23T11:41:23;5.95;;;1.77;;
61471;SDS011;47337;54.068;12.114;2024-03-23T11:43:50;8.20;;;2.00;;
61471;SDS011;47337;54.068;12.114;2024-03-23T11:46:24;5.32;;;2.03;;
61471;SDS011;47337;54.068;12.114;2024-03-23T11:48:50;9.48;;;1.95;;
61471;SDS011;47337;54.068;12.114;2024-03-23T11:51:16;5.03;;;1.38;;
61471;SDS011;47337;54.068;12.114;2024-03-23T11:53:41;7.78;;;1.45;;
61471;SDS011;47337;54.068;12.114;2024-03-23T11:56:07;8.68;;;1.90;;
61471;SDS011;47337;54.068;12.114;2024-03-23T11:58:35;4.32;;;1.10;;
61471;SDS011;47337;54.068;12.114;2024-03-23T12:01:03;3.80;;;1.00;;
61471;SDS011;47337;54.068;12.114;2024-03-23T12:03:30;1.48;;;0.40;;
61471;SDS011;47337;54.068;12.114;2024-03-23T12:05:56;3.90;;;0.90;;
61471;SDS011;47337;54.068;12.114;2024-03-23T12:08:34;4.47;;;0.90;;
61471;SDS011;47337;54.068;12.114;2024-03-23T12:11:12;2.47;;;0.70;;
61471;SDS011;47337;54.068;12.114;2024-03-23T12:13:39;1.15;;;0.60;;
61471;SDS011;47337;54.068;12.114;2024-03-23T12:16:13;1.15;;;0.57;;
61471;SDS011;47337;54.068;12.114;2024-03-23T12:18:39;3.60;;;1.03;;
61471;SDS011;47337;54.068;12.114;2024-03-23T12:21:05;2.70;;;1.10;;
61471;SDS011;47337;54.068;12.114;2024-03-23T12:23:30;1.55;;;0.50;;
61471;SDS011;47337;54.068;12.114;2024-03-23T12:25:55;3.25;;;0.73;;
61471;SDS011;47337;54.068;12.114;2024-03-23T12:28:21;3.78;;;0.60;;
61471;SDS011;47337;54.068;12.114;2024-03-23T12:30:46;2.03;;;0.73;;
61471;SDS011;47337;54.068;12.114;2024-03-23T12:33:11;2.80;;;0.80;;
61471;SDS011;47337;54.068;12.114;2024-03-23T12:35:36;1.63;;;0.60;;
61471;SDS011;47337;54.068;12.114;2024-03-23T12:38:03;2.42;;;0.70;;
61471;SDS011;47337;54.068;12.114;2024-03-23T12:40:28;1.17;;;0.40;;
61471;SDS011;47337;54.068;12.114;2024-03-23T12:42:53;1.48;;;0.73;;
61471;SDS011;47337;54.068;12.114;2024-03-23T12:45:19;1.55;;;0.85;;
61471;SDS011;47337;54.068;12.114;2024-03-23T12:47:44;1.95;;;0.73;;
61471;SDS011;47337;54.068;12.114;2024-03-23T12:50:09;2.47;;;0.65;;
61471;SDS011;47337;54.068;12.114;2024-03-23T12:52:35;2.22;;;0.90;;
61471;SDS011;47337;54.068;12.114;2024-03-23T12:55:01;1.27;;;0.52;;
61471;SDS011;47337;54.068;12.114;2024-03-23T12:57:26;2.75;;;0.80;;
61471;SDS011;47337;54.068;12.114;2024-03-23T12:59:52;3.45;;;1.02;;
61471;SDS011;47337;54.068;12.114;2024-03-23T13:02:20;5.65;;;1.02;;
61471;SDS011;47337;54.068;12.114;2024-03-23T13:04:49;2.85;;;1.15;;
61471;SDS011;47337;54.068;12.114;2024-03-23T13:07:15;2.35;;;0.75;;
61471;SDS011;47337;54.068;12.114;2024-03-23T13:09:40;2.95;;;0.80;;
61471;SDS011;47337;54.068;12.114;2024-03-23T13:12:05;1.52;;;0.88;;
61471;SDS011;47337;54.068;12.114;2024-03-23T13:14:31;5.05;;;0.93;;
61471;SDS011;47337;54.068;12.114;2024-03-23T13:16:56;2.20;;;0.85;;
61471;SDS011;47337;54.068;12.114;2024-03-23T13:19:23;3.35;;;1.00;;
61471;SDS011;47337;54.068;12.114;2024-03-23T13:21:56;3.45;;;0.60;;
61471;SDS011;47337;54.068;12.114;2024-03-23T13:24:22;4.40;;;0.93;;
61471;SDS011;47337;54.068;12.114;2024-03-23T13:26:52;2.72;;;1.05;;
61471;SDS011;47337;54.068;12.114;2024-03-23T13:29:18;2.60;;;0.90;;
61471;SDS011;47337;54.068;12.114;2024-03-23T13:31:47;3.90;;;1.08;;
61471;SDS011;47337;54.068;12.114;2024-03-23T13:34:12;6.45;;;1.52;;
61471;SDS011;47337;54.068;12.114;2024-03-23T13:36:41;3.70;;;1.10;;
61471;SDS011;47337;54.068;12.114;2024-03-23T13:39:07;4.88;;;1.20;;
61471;SDS011;47337;54.068;12.114;2024-03-23T13:41:39;4.53;;;1.40;;
61471;SDS011;47337;54.068;12.114;2024-03-23T13:44:05;3.60;;;1.25;;
61471;SDS011;47337;54.068;12.114;2024-03-23T13:46:30;3.13;;;0.77;;
61471;SDS011;47337;54.068;12.114;2024-03-23T13:48:58;3.28;;;1.00;;
61471;SDS011;47337;54.068;12.114;2024-03-23T13:51:24;6.18;;;0.80;;
61471;SDS011;47337;54.068;12.114;2024-03-23T13:53:53;1.23;;;0.70;;
61471;SDS011;47337;54.068;12.114;2024-03-23T13:56:18;4.82;;;1.15;;
61471;SDS011;47337;54.068;12.114;2024-03-23T13:58:43;1.83;;;0.70;;
61471;SDS011;47337;54.068;12.114;2024-03-23T14:01:11;4.10;;;0.90;;
61471;SDS011;47337;54.068;12.114;2024-03-23T14:03:37;2.03;;;0.68;;
61471;SDS011;47337;54.068;12.114;2024-03-23T14:06:02;3.55;;;0.90;;
61471;SDS011;47337;54.068;12.114;2024-03-23T14:08:28;5.65;;;1.15;;
61471;SDS011;47337;54.068;12.114;2024-03-23T14:10:58;5.25;;;1.50;;
61471;SDS011;47337;54.068;12.114;2024-03-23T14:13:23;4.07;;;1.00;;
61471;SDS011;47337;54.068;12.114;2024-03-23T14:15:52;3.20;;;1.20;;
61471;SDS011;47337;54.068;12.114;2024-03-23T14:18:17;2.90;;;0.90;;
61471;SDS011;47337;54.068;12.114;2024-03-23T14:20:42;6.28;;;1.05;;
61471;SDS011;47337;54.068;12.114;2024-03-23T14:23:08;4.40;;;0.90;;
61471;SDS011;47337;54.068;12.114;2024-03-23T14:25:33;1.52;;;0.70;;
61471;SDS011;47337;54.068;12.114;2024-03-23T14:27:58;3.30;;;0.82;;
61471;SDS011;47337;54.068;12.114;2024-03-23T14:30:26;2.95;;;0.85;;
61471;SDS011;47337;54.068;12.114;2024-03-23T14:32:51;3.33;;;1.10;;
61471;SDS011;47337;54.068;12.114;2024-03-23T14:35:16;4.05;;;0.88;;
61471;SDS011;47337;54.068;12.114;2024-03-23T14:37:41;5.47;;;1.23;;
61471;SDS011;47337;54.068;12.114;2024-03-23T14:40:09;2.47;;;0.85;;
61471;SDS011;47337;54.068;12.114;2024-03-23T14:42:37;4.18;;;0.98;;
61471;SDS011;47337;54.068;12.114;2024-03-23T14:45:03;3.83;;;1.05;;
61471;SDS011;47337;54.068;12.114;2024-03-23T14:47:28;5.20;;;1.33;;
61471;SDS011;47337;54.068;12.114;2024-03-23T14:49:56;4.88;;;1.15;;
61471;SDS011;47337;54.068;12.114;2024-03-23T14:52:23;8.13;;;1.13;;
61471;SDS011;47337;54.068;12.114;2024-03-23T14:54:49;7.82;;;1.40;;
61471;SDS011;47337;54.068;12.114;2024-03-23T14:57:14;3.65;;;1.02;;
61471;SDS011;47337;54.068;12.114;2024-03-23T14:59:44;5.35;;;1.00;;
61471;SDS011;47337;54.068;12.114;2024-03-23T15:02:09;3.85;;;1.02;;
61471;SDS011;47337;54.068;12.114;2024-03-23T15:04:34;4.38;;;0.93;;
61471;SDS011;47337;54.068;12.114;2024-03-23T15:07:00;4.15;;;1.15;;
61471;SDS011;47337;54.068;12.114;2024-03-23T15:09:25;3.90;;;0.93;;
61471;SDS011;47337;54.068;12.114;2024-03-23T15:11:50;5.68;;;1.20;;
61471;SDS011;47337;54.068;12.114;2024-03-23T15:14:19;8.43;;;1.10;;
61471;SDS011;47337;54.068;12.114;2024-03-23T15:16:45;4.70;;;0.70;;